Frederick, Illinois
Current Conditions -  °F | °C
As of 5:35 AM on Friday 31 Oct 2014 (Local Time) from KIJX Reporting Station
Overcast Overcast  
Wind Chill: 41°   Ceiling: 2700
Heat Index: 48°   Visibility: 10mi
Dew Point: 39°   Wind: 18mph
Humidity: 70%   Direction: 330°NNW
Pressure: 30.15"   Gusts: 32mph
Location:  40.07°N, 90.43°W
Report Text: KIJX 311035Z AUTO 33016G28KT 10SM BKN027 OVC033 09/04 A3015 RMK AO2 T00880037
Loading
Personal Weather Stations






























Interactive Weather Map
Tropical Storm Tracking
New forecast layout! Learn more

10-Day Weather Forecast

Advertisements
Track Severe Weather on mobile